createdAt,value
2018-09-17T00:01:53.001Z,4.00
2018-09-17T00:04:21.367Z,4.30
2018-09-17T00:06:52.656Z,3.33
2018-09-17T00:09:21.493Z,3.30
2018-09-17T00:11:49.894Z,4.20
2018-09-17T00:14:18.305Z,3.70
2018-09-17T00:16:47.153Z,3.60
2018-09-17T00:19:18.248Z,3.70
2018-09-17T00:21:47.257Z,3.30
2018-09-17T00:24:15.713Z,3.57
2018-09-17T00:26:44.245Z,3.93
2018-09-17T00:29:13.881Z,3.80
2018-09-17T00:31:44.469Z,3.80
2018-09-17T00:34:12.961Z,3.83
2018-09-17T00:36:42.405Z,3.20
2018-09-17T00:39:14.764Z,3.83
2018-09-17T00:41:43.946Z,3.60
2018-09-17T00:44:12.428Z,3.67
2018-09-17T00:46:40.817Z,3.67
2018-09-17T00:49:09.660Z,3.77
2018-09-17T00:51:38.402Z,3.80
2018-09-17T00:54:06.768Z,3.97
2018-09-17T00:56:35.212Z,3.40
2018-09-17T00:59:04.248Z,3.60
2018-09-17T01:01:32.768Z,4.20
2018-09-17T01:06:34.733Z,4.47
2018-09-17T01:09:03.272Z,4.13
2018-09-17T01:11:31.641Z,3.50
2018-09-17T01:14:00.201Z,3.70
2018-09-17T01:16:28.643Z,4.10
2018-09-17T01:18:57.084Z,3.70
2018-09-17T01:21:26.257Z,3.60
2018-09-17T01:23:54.732Z,3.90
2018-09-17T01:26:23.481Z,3.50
2018-09-17T01:28:52.200Z,3.80
2018-09-17T01:31:20.922Z,4.03
2018-09-17T01:33:49.407Z,3.47
2018-09-17T01:36:18.290Z,3.40
2018-09-17T01:38:46.719Z,3.10
2018-09-17T01:41:15.203Z,4.20
2018-09-17T01:43:43.887Z,3.40
2018-09-17T01:46:12.600Z,3.97
2018-09-17T01:48:41.727Z,4.00
2018-09-17T01:51:11.108Z,3.50
2018-09-17T01:53:39.532Z,3.97
2018-09-17T01:58:49.472Z,3.57
2018-09-17T02:01:18.261Z,4.17
2018-09-17T02:03:46.743Z,3.70
2018-09-17T02:06:15.179Z,3.47
2018-09-17T02:08:44.028Z,3.90
2018-09-17T02:11:12.894Z,3.83
2018-09-17T02:13:42.009Z,3.87
2018-09-17T02:16:10.596Z,3.90
2018-09-17T02:18:46.020Z,3.83
2018-09-17T02:21:14.444Z,3.70
2018-09-17T02:23:44.049Z,3.63
2018-09-17T02:26:12.888Z,3.77
2018-09-17T02:28:41.568Z,3.60
2018-09-17T02:31:09.978Z,3.80
2018-09-17T02:33:38.429Z,4.00
2018-09-17T02:36:07.355Z,3.30
2018-09-17T02:38:36.225Z,3.80
2018-09-17T02:41:05.144Z,3.43
2018-09-17T02:43:34.001Z,4.00
2018-09-17T02:46:02.432Z,4.20
2018-09-17T02:48:31.357Z,3.50
2018-09-17T02:50:59.725Z,3.60
2018-09-17T02:53:28.388Z,3.87
2018-09-17T02:56:01.908Z,4.20
2018-09-17T02:58:30.489Z,4.00
2018-09-17T03:00:58.895Z,4.10
2018-09-17T03:03:27.373Z,3.57
2018-09-17T03:05:56.287Z,3.73
2018-09-17T03:08:24.992Z,3.40
2018-09-17T03:10:53.676Z,3.57
2018-09-17T03:13:23.851Z,3.63
2018-09-17T03:15:53.842Z,3.90
2018-09-17T03:18:35.240Z,3.60
2018-09-17T03:21:05.335Z,4.00
2018-09-17T03:23:35.217Z,3.80
2018-09-17T03:26:03.991Z,3.60
2018-09-17T03:28:32.753Z,4.03
2018-09-17T03:31:02.313Z,4.07
2018-09-17T03:33:30.731Z,3.73
2018-09-17T03:36:14.017Z,3.70
2018-09-17T03:38:48.468Z,3.60
2018-09-17T03:41:18.316Z,3.70
2018-09-17T03:43:52.886Z,3.80
2018-09-17T03:46:21.784Z,3.70
2018-09-17T03:51:29.539Z,3.47
2018-09-17T03:53:58.221Z,4.10
2018-09-17T03:56:26.656Z,4.10
2018-09-17T03:58:55.405Z,4.10
2018-09-17T04:01:23.874Z,4.17
2018-09-17T04:03:52.592Z,4.73
2018-09-17T04:06:21.130Z,4.00
2018-09-17T04:08:49.849Z,4.10
2018-09-17T04:11:18.577Z,3.93
2018-09-17T04:13:58.591Z,3.70
2018-09-17T04:16:29.065Z,3.90
2018-09-17T04:18:59.115Z,4.20
2018-09-17T04:21:27.935Z,4.13
2018-09-17T04:23:56.348Z,4.07
2018-09-17T04:26:24.805Z,4.20
2018-09-17T04:28:53.343Z,3.60
2018-09-17T04:31:23.235Z,4.50
2018-09-17T04:33:51.658Z,4.17
2018-09-17T04:36:20.118Z,4.10
2018-09-17T04:38:48.565Z,4.50
2018-09-17T04:41:17.768Z,4.53
2018-09-17T04:43:48.063Z,4.20
2018-09-17T04:46:16.448Z,4.50
2018-09-17T04:48:45.834Z,4.67
2018-09-17T04:51:14.384Z,4.17
2018-09-17T04:53:43.532Z,4.57
2018-09-17T04:56:12.304Z,4.60
2018-09-17T04:58:40.707Z,4.47
2018-09-17T05:01:09.100Z,4.17
2018-09-17T05:03:37.501Z,4.00
2018-09-17T05:06:05.922Z,3.80
2018-09-17T05:08:35.044Z,3.90
2018-09-17T05:11:03.875Z,4.23
2018-09-17T05:13:32.343Z,3.70
2018-09-17T05:16:03.109Z,3.27
2018-09-17T05:18:33.536Z,3.83
2018-09-17T05:21:02.011Z,3.30
2018-09-17T05:23:31.288Z,3.60
2018-09-17T05:25:59.937Z,4.00
2018-09-17T05:28:28.353Z,3.83
2018-09-17T05:30:56.783Z,3.20
2018-09-17T05:33:25.531Z,2.90
2018-09-17T05:35:53.974Z,2.90
2018-09-17T05:38:23.031Z,3.73
2018-09-17T05:40:51.507Z,3.60
2018-09-17T05:43:20.325Z,3.53
2018-09-17T05:45:48.776Z,3.47
2018-09-17T05:48:17.919Z,3.20
2018-09-17T05:50:46.373Z,3.47
2018-09-17T05:53:15.826Z,2.87
2018-09-17T05:55:44.281Z,3.13
2018-09-17T05:58:12.744Z,2.50
2018-09-17T06:00:41.288Z,2.57
2018-09-17T06:03:09.732Z,2.73
2018-09-17T06:05:38.251Z,3.23
2018-09-17T06:08:07.028Z,2.60
2018-09-17T06:10:35.453Z,2.50
2018-09-17T06:13:03.879Z,2.93
2018-09-17T06:15:32.276Z,2.80
2018-09-17T06:18:04.824Z,3.00
2018-09-17T06:20:33.347Z,2.80
2018-09-17T06:23:02.793Z,2.90
2018-09-17T06:25:31.824Z,2.60
2018-09-17T06:28:00.349Z,3.00
2018-09-17T06:30:28.688Z,3.30
2018-09-17T06:32:57.098Z,3.13
2018-09-17T06:35:25.888Z,2.80
2018-09-17T06:37:54.339Z,3.33
2018-09-17T06:40:23.573Z,3.20
2018-09-17T06:42:52.335Z,2.57
2018-09-17T06:45:21.069Z,2.70
2018-09-17T06:47:49.438Z,2.60
2018-09-17T06:50:19.212Z,2.60
2018-09-17T06:52:47.709Z,2.30
2018-09-17T06:55:16.115Z,2.67
2018-09-17T06:57:44.560Z,3.20
2018-09-17T07:03:23.875Z,3.60
2018-09-17T07:05:52.287Z,4.13
2018-09-17T07:08:21.434Z,4.30
2018-09-17T07:10:51.741Z,4.63
2018-09-17T07:13:20.048Z,3.40
2018-09-17T07:15:48.726Z,3.07
2018-09-17T07:18:17.188Z,2.90
2018-09-17T07:20:47.816Z,2.80
2018-09-17T07:23:16.159Z,2.97
2018-09-17T07:25:44.591Z,3.10
2018-09-17T07:28:12.993Z,2.90
2018-09-17T07:33:32.193Z,3.00
2018-09-17T07:36:00.548Z,3.10
2018-09-17T07:38:28.864Z,3.40
2018-09-17T07:40:57.195Z,2.95
2018-09-17T07:43:25.583Z,3.10
2018-09-17T07:45:55.894Z,3.27
2018-09-17T07:48:24.253Z,3.25
2018-09-17T07:50:53.028Z,3.05
2018-09-17T07:56:06.124Z,3.23
2018-09-17T07:58:34.484Z,3.27
2018-09-17T08:01:02.823Z,2.93
2018-09-17T08:03:31.226Z,3.20
2018-09-17T08:05:59.651Z,4.13
2018-09-17T08:08:28.041Z,3.20
2018-09-17T08:10:56.726Z,3.67
2018-09-17T08:13:25.185Z,3.20
2018-09-17T08:18:36.925Z,4.63
2018-09-17T08:21:05.749Z,4.53
2018-09-17T08:23:34.264Z,5.07
2018-09-17T08:26:02.584Z,6.53
2018-09-17T08:28:31.048Z,4.73
2018-09-17T08:33:35.216Z,5.50
2018-09-17T08:36:05.536Z,5.80
2018-09-17T08:38:33.944Z,5.33
2018-09-17T08:41:02.763Z,5.47
2018-09-17T08:43:31.160Z,5.70
2018-09-17T08:45:59.599Z,5.30
2018-09-17T08:48:27.978Z,7.40
2018-09-17T08:50:58.347Z,7.03
2018-09-17T08:53:26.773Z,7.50
2018-09-17T08:56:04.587Z,7.50
2018-09-17T08:58:35.247Z,7.27
2018-09-17T09:01:08.397Z,8.27
2018-09-17T09:03:38.481Z,7.03
2018-09-17T09:06:12.179Z,7.50
2018-09-17T09:08:40.936Z,7.53
2018-09-17T09:11:16.441Z,7.17
2018-09-17T09:13:55.334Z,6.90
2018-09-17T09:19:19.246Z,9.27
2018-09-17T09:21:47.665Z,9.23
2018-09-17T09:24:18.363Z,6.83
2018-09-17T09:26:47.732Z,7.80
2018-09-17T09:29:16.782Z,7.83
2018-09-17T09:31:45.392Z,7.80
2018-09-17T09:34:13.724Z,7.83
2018-09-17T09:36:42.447Z,8.77
2018-09-17T09:39:11.976Z,8.00
2018-09-17T09:41:41.207Z,7.60
2018-09-17T09:44:09.946Z,7.70
2018-09-17T09:46:38.317Z,8.03
2018-09-17T09:49:07.518Z,8.87
2018-09-17T09:51:36.159Z,8.37
2018-09-17T09:54:04.618Z,8.80
2018-09-17T09:56:32.985Z,8.83
2018-09-17T09:59:01.469Z,8.73
2018-09-17T10:01:37.077Z,7.10
2018-09-17T10:04:11.374Z,7.43
2018-09-17T10:06:39.757Z,7.58
2018-09-17T10:09:14.185Z,7.08
2018-09-17T10:11:48.085Z,7.10
2018-09-17T10:14:21.876Z,9.00
2018-09-17T10:16:55.614Z,6.78
2018-09-17T10:19:31.716Z,6.50
2018-09-17T10:22:00.040Z,6.72
2018-09-17T10:24:28.574Z,6.80
2018-09-17T10:26:56.984Z,6.85
2018-09-17T10:29:25.823Z,7.95
2018-09-17T10:31:54.196Z,6.23
2018-09-17T10:34:23.335Z,6.80
2018-09-17T10:36:52.123Z,7.00
2018-09-17T10:39:20.501Z,6.57
2018-09-17T10:41:48.916Z,7.00
2018-09-17T10:44:17.387Z,6.40
2018-09-17T10:46:45.959Z,5.90
2018-09-17T10:49:14.791Z,7.97
2018-09-17T10:51:43.552Z,6.23
2018-09-17T10:54:11.817Z,6.27
2018-09-17T10:56:42.028Z,5.83
2018-09-17T10:59:10.384Z,6.00
2018-09-17T11:01:38.773Z,5.93
2018-09-17T11:04:07.160Z,5.50
2018-09-17T11:06:37.432Z,5.57
2018-09-17T11:09:08.297Z,6.30
2018-09-17T11:11:36.653Z,6.27
2018-09-17T11:14:05.887Z,6.33
2018-09-17T11:16:34.380Z,5.77
2018-09-17T11:19:02.771Z,4.90
2018-09-17T11:21:31.219Z,5.50
2018-09-17T11:23:59.756Z,5.37
2018-09-17T11:26:28.149Z,5.60
2018-09-17T11:28:56.506Z,5.53
2018-09-17T11:31:25.055Z,5.77
2018-09-17T11:33:53.427Z,5.00
2018-09-17T11:36:21.806Z,5.23
2018-09-17T11:38:50.173Z,4.80
2018-09-17T11:41:18.738Z,4.23
2018-09-17T11:43:47.247Z,5.13
2018-09-17T11:46:16.032Z,4.77
2018-09-17T11:48:44.460Z,5.37
2018-09-17T11:51:12.921Z,4.80
2018-09-17T11:53:41.425Z,5.13
2018-09-17T11:56:11.690Z,4.73
2018-09-17T11:58:40.428Z,4.80
2018-09-17T12:01:14.405Z,5.43
2018-09-17T12:03:48.132Z,4.87
2018-09-17T12:06:23.643Z,5.60
2018-09-17T12:08:52.232Z,4.80
2018-09-17T12:11:20.729Z,5.30
2018-09-17T12:13:49.095Z,4.83
2018-09-17T12:16:17.507Z,5.00
2018-09-17T12:18:45.971Z,5.03
2018-09-17T12:21:15.003Z,5.03
2018-09-17T12:23:45.319Z,4.10
2018-09-17T12:26:14.281Z,5.07
2018-09-17T12:28:42.746Z,4.47
2018-09-17T12:31:11.305Z,4.37
2018-09-17T12:33:40.252Z,4.80
2018-09-17T12:36:08.657Z,4.77
2018-09-17T12:38:37.045Z,5.13
2018-09-17T12:41:05.396Z,4.97
2018-09-17T12:43:33.833Z,4.63
2018-09-17T12:46:02.391Z,4.93
2018-09-17T12:48:31.650Z,4.83
2018-09-17T12:51:00.150Z,4.50
2018-09-17T12:53:28.616Z,4.70
2018-09-17T12:55:57.040Z,4.80
2018-09-17T12:58:25.650Z,4.07
2018-09-17T13:00:54.020Z,4.43
2018-09-17T13:03:23.093Z,4.70
2018-09-17T13:05:51.523Z,4.87
2018-09-17T13:08:20.121Z,5.00
2018-09-17T13:10:48.475Z,5.23
2018-09-17T13:13:16.905Z,4.33
2018-09-17T13:15:51.108Z,4.27
2018-09-17T13:18:20.152Z,4.97
2018-09-17T13:20:48.624Z,4.53
2018-09-17T13:23:17.072Z,4.53
2018-09-17T13:25:45.664Z,4.83
2018-09-17T13:28:14.368Z,4.10
2018-09-17T13:30:43.275Z,4.60
2018-09-17T13:33:11.897Z,3.83
2018-09-17T13:35:40.472Z,4.20
2018-09-17T13:38:08.921Z,4.10
2018-09-17T13:40:39.552Z,4.57
2018-09-17T13:43:08.184Z,3.40
2018-09-17T13:45:36.872Z,4.20
2018-09-17T13:48:06.349Z,3.80
2018-09-17T13:50:34.817Z,3.97
2018-09-17T13:53:03.226Z,4.10
2018-09-17T13:55:31.951Z,3.87
2018-09-17T13:58:01.419Z,3.63
2018-09-17T14:00:29.849Z,4.17
2018-09-17T14:02:58.230Z,3.23
2018-09-17T14:05:26.764Z,3.00
2018-09-17T14:07:55.255Z,3.40
2018-09-17T14:10:24.158Z,3.27
2018-09-17T14:12:53.131Z,2.80
2018-09-17T14:15:21.690Z,2.80
2018-09-17T14:17:50.421Z,3.00
2018-09-17T14:20:18.850Z,3.47
2018-09-17T14:22:47.892Z,2.97
2018-09-17T14:25:16.273Z,3.30
2018-09-17T14:27:45.328Z,3.37
2018-09-17T14:30:13.945Z,3.20
2018-09-17T14:32:47.962Z,3.13
2018-09-17T14:35:16.488Z,3.10
2018-09-17T14:37:45.198Z,2.83
2018-09-17T14:40:13.644Z,3.00
2018-09-17T14:42:42.248Z,2.97
2018-09-17T14:45:10.605Z,3.17
2018-09-17T14:47:39.065Z,2.93
2018-09-17T14:50:07.380Z,3.10
2018-09-17T14:52:37.923Z,3.00
2018-09-17T14:55:06.367Z,3.13
2018-09-17T14:57:34.843Z,3.30
2018-09-17T15:00:03.216Z,3.03
2018-09-17T15:02:31.712Z,3.03
2018-09-17T15:05:00.224Z,3.20
2018-09-17T15:07:28.704Z,3.43
2018-09-17T15:09:57.520Z,3.17
2018-09-17T15:12:26.102Z,3.60
2018-09-17T15:14:55.408Z,2.93
2018-09-17T15:17:24.171Z,2.50
2018-09-17T15:19:52.729Z,3.50
2018-09-17T15:22:21.489Z,2.80
2018-09-17T15:24:50.216Z,3.00
2018-09-17T15:27:19.486Z,3.37
2018-09-17T15:29:48.353Z,3.30
2018-09-17T15:32:17.045Z,3.17
2018-09-17T15:34:46.011Z,3.40
2018-09-17T15:37:14.461Z,3.33
2018-09-17T15:39:43.738Z,3.40
2018-09-17T15:42:12.898Z,3.47
2018-09-17T15:44:43.020Z,3.33
2018-09-17T15:47:11.690Z,3.43
2018-09-17T15:49:40.476Z,4.23
2018-09-17T15:52:09.260Z,3.10
2018-09-17T15:54:37.670Z,3.10
2018-09-17T15:57:07.559Z,3.40
2018-09-17T15:59:35.918Z,3.83
2018-09-17T16:02:04.408Z,4.23
2018-09-17T16:04:32.845Z,3.70
2018-09-17T16:07:01.669Z,3.27
2018-09-17T16:09:30.149Z,3.37
2018-09-17T16:11:59.592Z,4.47
2018-09-17T16:14:28.296Z,6.30
2018-09-17T16:16:56.732Z,4.23
2018-09-17T16:22:18.437Z,6.67
2018-09-17T16:24:46.896Z,4.87
2018-09-17T16:27:15.328Z,5.23
2018-09-17T16:29:44.119Z,4.60
2018-09-17T16:32:13.342Z,4.33
2018-09-17T16:34:41.958Z,5.47
2018-09-17T16:37:11.417Z,4.50
2018-09-17T16:39:40.368Z,4.20
2018-09-17T16:42:09.066Z,4.40
2018-09-17T16:44:37.670Z,4.03
2018-09-17T16:47:06.361Z,4.27
2018-09-17T16:49:35.020Z,4.30
2018-09-17T16:52:03.577Z,3.83
2018-09-17T16:54:32.187Z,4.63
2018-09-17T16:57:00.774Z,4.00
2018-09-17T16:59:29.380Z,4.00
2018-09-17T17:01:57.813Z,4.20
2018-09-17T17:04:26.487Z,4.00
2018-09-17T17:06:55.234Z,3.90
2018-09-17T17:09:23.681Z,3.83
2018-09-17T17:11:52.503Z,3.83
2018-09-17T17:14:21.102Z,4.17
2018-09-17T17:16:49.893Z,4.40
2018-09-17T17:19:18.832Z,4.13
2018-09-17T17:21:47.844Z,4.60
2018-09-17T17:24:16.406Z,5.33
2018-09-17T17:26:45.931Z,4.50
2018-09-17T17:29:14.848Z,5.00
2018-09-17T17:31:44.563Z,4.80
2018-09-17T17:34:13.343Z,4.77
2018-09-17T17:36:41.839Z,5.20
2018-09-17T17:39:12.001Z,5.00
2018-09-17T17:41:41.134Z,5.70
2018-09-17T17:44:09.638Z,4.63
2018-09-17T17:46:38.202Z,4.80
2018-09-17T17:49:07.353Z,4.37
2018-09-17T17:51:35.776Z,4.03
2018-09-17T17:54:06.144Z,4.80
2018-09-17T17:56:35.584Z,4.50
2018-09-17T17:59:04.091Z,4.50
2018-09-17T18:01:32.955Z,4.50
2018-09-17T18:04:01.625Z,5.17
2018-09-17T18:06:29.997Z,4.97
2018-09-17T18:08:58.617Z,4.60
2018-09-17T18:11:27.061Z,4.87
2018-09-17T18:13:55.725Z,4.70
2018-09-17T18:16:29.521Z,4.97
2018-09-17T18:18:58.969Z,4.67
2018-09-17T18:21:27.688Z,5.50
2018-09-17T18:23:56.389Z,4.87
2018-09-17T18:26:25.026Z,6.60
2018-09-17T18:28:53.623Z,6.70
2018-09-17T18:31:21.879Z,5.20
2018-09-17T18:33:50.310Z,5.10
2018-09-17T18:36:18.759Z,4.70
2018-09-17T18:38:47.273Z,3.83
2018-09-17T18:41:17.027Z,4.20
2018-09-17T18:43:45.481Z,4.53
2018-09-17T18:46:14.571Z,4.67
2018-09-17T18:48:43.135Z,4.90
2018-09-17T18:51:11.879Z,5.07
2018-09-17T18:53:40.358Z,4.73
2018-09-17T18:56:08.833Z,4.80
2018-09-17T18:58:37.307Z,4.60
2018-09-17T19:01:05.747Z,4.80
2018-09-17T19:03:34.157Z,4.50
2018-09-17T19:06:02.836Z,4.17
2018-09-17T19:08:31.703Z,4.37
2018-09-17T19:11:00.129Z,4.20
2018-09-17T19:13:28.602Z,4.43
2018-09-17T19:15:58.398Z,4.10
2018-09-17T19:18:26.843Z,5.10
2018-09-17T19:20:55.766Z,4.63
2018-09-17T19:23:29.311Z,4.57
2018-09-17T19:26:00.013Z,5.10
2018-09-17T19:28:34.169Z,4.63
2018-09-17T19:31:02.556Z,5.07
2018-09-17T19:33:30.988Z,5.20
2018-09-17T19:36:00.175Z,5.10
2018-09-17T19:38:33.913Z,5.30
2018-09-17T19:41:02.517Z,5.13
2018-09-17T19:43:31.013Z,4.50
2018-09-17T19:46:05.266Z,4.43
2018-09-17T19:48:33.905Z,4.90
2018-09-17T19:51:10.065Z,4.30
2018-09-17T19:53:38.554Z,4.57
2018-09-17T19:56:07.049Z,4.97
2018-09-17T19:58:41.197Z,4.87
2018-09-17T20:01:09.655Z,5.40
2018-09-17T20:03:38.552Z,5.83
2018-09-17T20:06:13.696Z,6.53
2018-09-17T20:08:42.731Z,5.47
2018-09-17T20:11:11.187Z,5.70
2018-09-17T20:13:40.398Z,29.73
2018-09-17T20:16:10.000Z,52.37
2018-09-17T20:18:38.929Z,54.43
2018-09-17T20:21:07.537Z,47.37
2018-09-17T20:23:36.763Z,33.33
2018-09-17T20:26:05.220Z,14.33
2018-09-17T20:28:34.364Z,7.30
2018-09-17T20:31:03.337Z,6.93
2018-09-17T20:33:33.467Z,6.53
2018-09-17T20:36:01.935Z,5.37
2018-09-17T20:38:32.242Z,7.40
2018-09-17T20:41:00.871Z,6.17
2018-09-17T20:43:29.275Z,6.03
2018-09-17T20:45:57.971Z,6.40
2018-09-17T20:48:26.406Z,5.60
2018-09-17T20:50:54.799Z,5.87
2018-09-17T20:53:23.277Z,5.27
2018-09-17T20:55:51.699Z,5.33
2018-09-17T20:58:22.308Z,5.73
2018-09-17T21:00:52.193Z,6.80
2018-09-17T21:03:20.677Z,6.77
2018-09-17T21:05:49.193Z,10.20
2018-09-17T21:08:18.203Z,8.83
2018-09-17T21:10:46.688Z,7.20
2018-09-17T21:13:15.158Z,6.40
2018-09-17T21:15:43.715Z,5.20
2018-09-17T21:18:12.189Z,5.37
2018-09-17T21:20:40.896Z,4.33
2018-09-17T21:23:09.581Z,5.67
2018-09-17T21:25:38.000Z,5.53
2018-09-17T21:28:07.224Z,6.23
2018-09-17T21:30:35.584Z,5.10
2018-09-17T21:33:04.364Z,4.70
2018-09-17T21:35:32.785Z,4.70
2018-09-17T21:38:01.404Z,5.00
2018-09-17T21:40:29.833Z,4.70
2018-09-17T21:42:59.013Z,4.93
2018-09-17T21:45:27.360Z,4.87
2018-09-17T21:47:56.028Z,4.93
2018-09-17T21:50:24.456Z,4.10
2018-09-17T21:52:53.583Z,4.90
2018-09-17T21:55:23.380Z,5.07
2018-09-17T21:57:51.800Z,5.00
2018-09-17T22:00:21.028Z,4.80
2018-09-17T22:02:49.941Z,4.50
2018-09-17T22:05:18.610Z,4.57
2018-09-17T22:07:47.847Z,4.90
2018-09-17T22:10:16.265Z,5.10
2018-09-17T22:12:44.938Z,5.37
2018-09-17T22:15:13.370Z,4.77
2018-09-17T22:17:41.785Z,5.13
2018-09-17T22:20:10.177Z,5.23
2018-09-17T22:22:38.600Z,5.80
2018-09-17T22:25:06.988Z,5.47
2018-09-17T22:27:35.424Z,5.10
2018-09-17T22:30:04.230Z,5.13
2018-09-17T22:32:32.669Z,5.23
2018-09-17T22:35:01.068Z,5.30
2018-09-17T22:37:29.784Z,5.27
2018-09-17T22:39:58.325Z,5.10
2018-09-17T22:42:27.056Z,5.00
2018-09-17T22:44:55.521Z,5.37
2018-09-17T22:47:24.726Z,5.43
2018-09-17T22:49:53.132Z,5.73
2018-09-17T22:52:21.568Z,5.67
2018-09-17T22:54:50.997Z,5.73
2018-09-17T22:57:19.431Z,5.20
2018-09-17T22:59:49.752Z,4.90
2018-09-17T23:02:20.157Z,5.93
2018-09-17T23:04:48.582Z,4.87
2018-09-17T23:07:16.964Z,5.30
2018-09-17T23:09:45.380Z,5.77
2018-09-17T23:12:14.203Z,4.97
2018-09-17T23:14:43.045Z,5.60
2018-09-17T23:17:11.683Z,4.50
2018-09-17T23:19:40.226Z,5.37
2018-09-17T23:22:08.925Z,5.33
2018-09-17T23:24:38.200Z,5.17
2018-09-17T23:27:07.067Z,5.53
2018-09-17T23:29:35.452Z,6.13
2018-09-17T23:32:04.165Z,5.77
2018-09-17T23:34:33.175Z,6.40
2018-09-17T23:37:01.860Z,5.23
2018-09-17T23:39:30.336Z,5.77
2018-09-17T23:44:36.651Z,5.80
2018-09-17T23:47:05.140Z,5.80
2018-09-17T23:49:33.561Z,5.40
2018-09-17T23:52:02.452Z,5.80
2018-09-17T23:54:30.805Z,6.07
2018-09-17T23:56:59.213Z,6.27
2018-09-17T23:59:27.647Z,4.77
